Strona główna
METAR-TAF:

METAR-TAF

Lotnisko :

Danbury Municipal Airport

Danbury, Connecticut, Stany Zjednoczone

Szerokość geograficzna: 41-22-18N, Długość geograficzna: 073-29-04W, wysokość: 139 m

Aktualna obserwacja pogody

Raport powstał 21 minut temu, godzina 09:53 UTC
Wiatr 9 kt od zachód w porywach dochodzący do 15 kt, zmienny między południowy zachód i zachodnio-północny zachód
Temperatura -3°C
Wilgotność 42%
Ciśnienie 1008 hPa
Widzialność: 16.1 km
bezchmurnie

METAR: KDXR 280953Z AUTO 26009G15KT 230V290 10SM CLR M03/M14 A2978 RMK AO2 SLP087 T10331144

czas: 05:14 (10:14 UTC)


TAF: brakujący

Obserwacja i prognoza pogody dla ponad 4000 lotnisk (raport METAR i TAF).

Dostępne stacje oznaczono żółtymi i czerwonymi punktami na mapie.

Najedź kursorem aby zobaczyć nazwę stacji.

Kliknij aby zobaczyć obserwacje i prognozy pogody.

Aby zmienić mapę: kliknij na zielony przycisk z czarnym krzyżykiem, aby powiększyć; na zielony przycisk z myślnikiem, aby pomniejszyć; na zielone strzałki, aby przejść do map sąsiednich.


METAR-TAF: